GAP316 RPLL-RPVR
Flight info
| Callsign | GAP316 |
|---|---|
| Flight time | 0h 38m |
| Altitude | 25000 |
| Route | VERDE2C/13 VERDE W24 TAPER TR18 KLO |
| Aircraft | A20N/M-SDE2E3FGHIRWXY/LB1 |
Departure
| Time | 2026-05-01 07:23 |
|---|---|
| Airport | Ninoy Aquino International Airport (RPLL) |
Arrival
| Time | 2026-05-01 08:02 |
|---|---|
| Airport | Roxas Airport (RPVR) |
| Time | Latitude | Longitude | Altitude | Speed | Heading |
|---|---|---|---|---|---|
| 2026-05-01 07:23 | 14.49846 | 121.04708 | 1835 ft | 211 kts | 108° |
| 2026-05-01 07:23 | 14.48838 | 121.07970 | 3178 ft | 255 kts | 106° |
| 2026-05-01 07:24 | 14.48054 | 121.09614 | 4130 ft | 262 kts | 131° |
| 2026-05-01 07:24 | 14.46483 | 121.10573 | 5165 ft | 270 kts | 165° |
| 2026-05-01 07:24 | 14.44607 | 121.10459 | 6193 ft | 279 kts | 198° |
| 2026-05-01 07:24 | 14.43013 | 121.09297 | 7135 ft | 288 kts | 227° |
| 2026-05-01 07:25 | 14.41812 | 121.07627 | 8123 ft | 293 kts | 235° |
| 2026-05-01 07:25 | 14.40629 | 121.05888 | 9090 ft | 299 kts | 226° |
| 2026-05-01 07:25 | 14.38952 | 121.04714 | 9938 ft | 299 kts | 195° |
| 2026-05-01 07:25 | 14.36852 | 121.04463 | 10505 ft | 313 kts | 176° |
| 2026-05-01 07:26 | 14.34620 | 121.04552 | 11108 ft | 328 kts | 175° |
| 2026-05-01 07:26 | 14.32316 | 121.04597 | 11863 ft | 335 kts | 178° |
| 2026-05-01 07:26 | 14.29961 | 121.04550 | 12686 ft | 341 kts | 178° |
| 2026-05-01 07:26 | 14.27560 | 121.04430 | 13497 ft | 349 kts | 180° |
| 2026-05-01 07:27 | 14.25118 | 121.04277 | 14312 ft | 353 kts | 181° |
| 2026-05-01 07:27 | 14.22664 | 121.04099 | 15146 ft | 356 kts | 181° |
| 2026-05-01 07:27 | 14.20209 | 121.03908 | 15980 ft | 360 kts | 181° |
| 2026-05-01 07:27 | 14.17701 | 121.03707 | 16813 ft | 363 kts | 181° |
| 2026-05-01 07:28 | 14.15171 | 121.03504 | 17631 ft | 366 kts | 182° |
| 2026-05-01 07:28 | 14.12616 | 121.03292 | 18358 ft | 371 kts | 181° |
| 2026-05-01 07:28 | 14.10036 | 121.03079 | 18973 ft | 375 kts | 182° |
| 2026-05-01 07:28 | 14.07410 | 121.02864 | 19548 ft | 381 kts | 182° |
| 2026-05-01 07:29 | 14.04756 | 121.02681 | 20160 ft | 384 kts | 180° |
| 2026-05-01 07:29 | 14.02073 | 121.02654 | 20794 ft | 387 kts | 178° |
| 2026-05-01 07:29 | 13.99376 | 121.02677 | 21433 ft | 391 kts | 178° |
| 2026-05-01 07:29 | 13.96673 | 121.02708 | 22056 ft | 395 kts | 178° |
| 2026-05-01 07:30 | 13.93910 | 121.02739 | 22680 ft | 399 kts | 178° |
| 2026-05-01 07:30 | 13.91120 | 121.02770 | 23319 ft | 403 kts | 178° |
| 2026-05-01 07:30 | 13.88302 | 121.02799 | 23862 ft | 407 kts | 179° |
| 2026-05-01 07:30 | 13.85458 | 121.02828 | 24406 ft | 410 kts | 179° |
| 2026-05-01 07:31 | 13.82600 | 121.02856 | 24745 ft | 411 kts | 179° |
| 2026-05-01 07:31 | 13.73989 | 121.02941 | 24862 ft | 415 kts | 179° |
| 2026-05-01 07:32 | 13.68252 | 121.02998 | 24864 ft | 415 kts | 179° |
| 2026-05-01 07:32 | 13.65364 | 121.03027 | 24864 ft | 415 kts | 179° |
| 2026-05-01 07:33 | 13.59594 | 121.03084 | 24872 ft | 415 kts | 179° |
| 2026-05-01 07:33 | 13.56699 | 121.03113 | 24874 ft | 415 kts | 179° |
| 2026-05-01 07:33 | 13.50957 | 121.03495 | 24871 ft | 414 kts | 165° |
| 2026-05-01 07:34 | 13.48295 | 121.04604 | 24884 ft | 413 kts | 152° |
| 2026-05-01 07:34 | 13.43462 | 121.07698 | 24881 ft | 412 kts | 144° |
| 2026-05-01 07:34 | 13.41125 | 121.09412 | 24881 ft | 412 kts | 143° |
| 2026-05-01 07:35 | 13.38809 | 121.11135 | 24882 ft | 412 kts | 143° |
| 2026-05-01 07:35 | 13.36476 | 121.12854 | 24881 ft | 412 kts | 144° |
| 2026-05-01 07:35 | 13.34144 | 121.14545 | 24888 ft | 412 kts | 144° |
| 2026-05-01 07:35 | 13.31782 | 121.16233 | 24891 ft | 412 kts | 144° |
| 2026-05-01 07:36 | 13.29422 | 121.17900 | 24889 ft | 412 kts | 145° |
| 2026-05-01 07:36 | 13.27053 | 121.19563 | 24889 ft | 413 kts | 144° |
| 2026-05-01 07:36 | 13.24685 | 121.21221 | 24889 ft | 412 kts | 145° |
| 2026-05-01 07:36 | 13.22343 | 121.22860 | 24888 ft | 412 kts | 145° |
| 2026-05-01 07:37 | 13.17602 | 121.26178 | 24898 ft | 413 kts | 145° |
| 2026-05-01 07:37 | 13.15234 | 121.27837 | 24897 ft | 413 kts | 145° |
| 2026-05-01 07:37 | 13.12851 | 121.29506 | 24897 ft | 413 kts | 145° |
| 2026-05-01 07:38 | 13.10480 | 121.31166 | 24894 ft | 414 kts | 145° |
| 2026-05-01 07:38 | 13.08102 | 121.32832 | 24892 ft | 414 kts | 145° |
| 2026-05-01 07:38 | 13.03348 | 121.36160 | 24892 ft | 414 kts | 145° |
| 2026-05-01 07:39 | 13.01005 | 121.37800 | 24891 ft | 414 kts | 145° |
| 2026-05-01 07:39 | 12.98626 | 121.39465 | 24892 ft | 414 kts | 145° |
| 2026-05-01 07:39 | 12.93870 | 121.42791 | 24886 ft | 414 kts | 145° |
| 2026-05-01 07:40 | 12.91496 | 121.44451 | 24887 ft | 414 kts | 145° |
| 2026-05-01 07:40 | 12.89118 | 121.46113 | 24883 ft | 414 kts | 145° |
| 2026-05-01 07:40 | 12.86741 | 121.47775 | 24884 ft | 413 kts | 145° |
| 2026-05-01 07:40 | 12.84366 | 121.49434 | 24883 ft | 413 kts | 145° |
| 2026-05-01 07:41 | 12.81990 | 121.51093 | 24881 ft | 413 kts | 145° |
| 2026-05-01 07:41 | 12.79643 | 121.52732 | 24877 ft | 413 kts | 145° |
| 2026-05-01 07:41 | 12.74893 | 121.56048 | 24878 ft | 413 kts | 145° |
| 2026-05-01 07:42 | 12.72516 | 121.57707 | 24877 ft | 413 kts | 145° |
| 2026-05-01 07:42 | 12.70142 | 121.59364 | 24875 ft | 413 kts | 145° |
| 2026-05-01 07:42 | 12.67765 | 121.61022 | 24877 ft | 413 kts | 144° |
| 2026-05-01 07:42 | 12.65393 | 121.62677 | 24872 ft | 413 kts | 144° |
| 2026-05-01 07:43 | 12.63012 | 121.64337 | 24867 ft | 413 kts | 145° |
| 2026-05-01 07:43 | 12.60638 | 121.65991 | 24867 ft | 413 kts | 144° |
| 2026-05-01 07:43 | 12.55923 | 121.69278 | 24867 ft | 413 kts | 144° |
| 2026-05-01 07:44 | 12.51171 | 121.72587 | 24864 ft | 413 kts | 145° |
| 2026-05-01 07:44 | 12.46414 | 121.75899 | 24867 ft | 413 kts | 145° |
| 2026-05-01 07:45 | 12.44036 | 121.77554 | 24863 ft | 413 kts | 144° |
| 2026-05-01 07:45 | 12.41664 | 121.79204 | 24864 ft | 412 kts | 144° |
| 2026-05-01 07:45 | 12.39331 | 121.80827 | 24863 ft | 411 kts | 144° |
| 2026-05-01 07:45 | 12.36976 | 121.82472 | 24858 ft | 410 kts | 143° |
| 2026-05-01 07:46 | 12.34669 | 121.84200 | 24858 ft | 409 kts | 142° |
| 2026-05-01 07:46 | 12.32425 | 121.85987 | 24847 ft | 410 kts | 140° |
| 2026-05-01 07:46 | 12.27963 | 121.89660 | 23839 ft | 412 kts | 140° |
| 2026-05-01 07:47 | 12.25735 | 121.91501 | 23136 ft | 412 kts | 140° |
| 2026-05-01 07:47 | 12.23515 | 121.93324 | 22524 ft | 407 kts | 140° |
| 2026-05-01 07:47 | 12.21345 | 121.95097 | 21896 ft | 404 kts | 140° |
| 2026-05-01 07:47 | 12.19162 | 121.96872 | 21311 ft | 399 kts | 140° |
| 2026-05-01 07:48 | 12.14859 | 122.00361 | 20160 ft | 390 kts | 140° |
| 2026-05-01 07:48 | 12.12744 | 122.02072 | 19572 ft | 386 kts | 139° |
| 2026-05-01 07:48 | 12.10647 | 122.03770 | 19028 ft | 382 kts | 139° |
| 2026-05-01 07:49 | 12.08573 | 122.05449 | 18442 ft | 379 kts | 139° |
| 2026-05-01 07:49 | 12.04498 | 122.08774 | 17213 ft | 371 kts | 139° |
| 2026-05-01 07:49 | 12.02496 | 122.10415 | 16586 ft | 367 kts | 139° |
| 2026-05-01 07:50 | 12.00535 | 122.12023 | 15966 ft | 364 kts | 139° |
| 2026-05-01 07:50 | 11.96617 | 122.15233 | 14740 ft | 359 kts | 140° |
| 2026-05-01 07:50 | 11.94680 | 122.16819 | 14148 ft | 356 kts | 140° |
| 2026-05-01 07:51 | 11.92759 | 122.18390 | 13553 ft | 353 kts | 140° |
| 2026-05-01 07:51 | 11.90859 | 122.19944 | 12940 ft | 349 kts | 140° |
| 2026-05-01 07:51 | 11.88972 | 122.21485 | 12374 ft | 344 kts | 140° |
| 2026-05-01 07:52 | 11.85434 | 122.24370 | 12122 ft | 310 kts | 139° |
| 2026-05-01 07:52 | 11.83798 | 122.25705 | 11794 ft | 303 kts | 139° |
| 2026-05-01 07:52 | 11.82158 | 122.27046 | 11309 ft | 302 kts | 139° |
| 2026-05-01 07:53 | 11.78908 | 122.29703 | 10433 ft | 297 kts | 139° |
| 2026-05-01 07:53 | 11.77306 | 122.31013 | 10012 ft | 294 kts | 138° |
| 2026-05-01 07:53 | 11.75723 | 122.32304 | 9613 ft | 290 kts | 137° |
| 2026-05-01 07:53 | 11.74154 | 122.33587 | 9065 ft | 289 kts | 138° |
| 2026-05-01 07:54 | 11.71055 | 122.36118 | 8198 ft | 282 kts | 139° |
| 2026-05-01 07:55 | 11.68450 | 122.41024 | 6859 ft | 268 kts | 93° |
| 2026-05-01 07:55 | 11.68410 | 122.44789 | 5962 ft | 264 kts | 90° |
| 2026-05-01 07:56 | 11.68458 | 122.50207 | 5111 ft | 238 kts | 90° |
| 2026-05-01 07:56 | 11.68486 | 122.53408 | 4879 ft | 214 kts | 90° |
| 2026-05-01 07:57 | 11.68499 | 122.54874 | 4773 ft | 204 kts | 90° |
| 2026-05-01 07:57 | 11.68522 | 122.57634 | 4502 ft | 188 kts | 90° |
| 2026-05-01 07:58 | 11.68543 | 122.60263 | 4011 ft | 185 kts | 90° |
| 2026-05-01 07:58 | 11.68564 | 122.62888 | 3486 ft | 184 kts | 89° |
| 2026-05-01 07:59 | 11.68585 | 122.65477 | 3001 ft | 183 kts | 89° |
| 2026-05-01 07:59 | 11.68549 | 122.68074 | 2472 ft | 185 kts | 100° |
| 2026-05-01 08:00 | 11.64992 | 122.71473 | 1414 ft | 168 kts | 142° |
| 2026-05-01 08:01 | 11.62350 | 122.73413 | 526 ft | 140 kts | 142° |
| 2026-05-01 08:01 | 11.61613 | 122.73979 | 320 ft | 130 kts | 144° |
| 2026-05-01 08:01 | 11.60882 | 122.74495 | 155 ft | 127 kts | 143° |
| 2026-05-01 08:02 | 11.59582 | 122.75422 | 12 ft | 76 kts | 144° |
| 2026-05-01 08:02 | 11.59271 | 122.75652 | 10 ft | 32 kts | 133° |
| 2026-05-01 08:03 | 11.59299 | 122.75624 | 10 ft | 14 kts | 324° |
| 2026-05-01 08:03 | 11.59390 | 122.75559 | 11 ft | 18 kts | 325° |
| 2026-05-01 08:03 | 11.59672 | 122.75357 | 13 ft | 28 kts | 324° |
| 2026-05-01 08:04 | 11.60026 | 122.75104 | 12 ft | 34 kts | 325° |
| 2026-05-01 08:04 | 11.60085 | 122.74933 | 10 ft | 9 kts | 264° |
| 2026-05-01 08:05 | 11.60083 | 122.74919 | 10 ft | 0 kts | 264° |